• Join FlightAware (Why Join?)
  • Login
  • US Flag 
09:19PM EDT


 

Airport Tracker/Info


-or-


 

Live Flight TrackerFlight Track Log ✈ ASQ6130 ✈ 09-Jun-2013 ✈ KDIK - KDEN

Flight Track Log - Related Links

Times and Time Zones

All times are in EDT time to prevent confusion due to time zone crossing. See the ASQ6130 flight status page for this flight to view local times or setup timezone preferences in your user account.

Time Position Orientation Groundspeed Altitude Reporting Facility
EDT Latitude Longitude Course Direction KTS MPH feet Rate Location/Type
01:47PM 46.1357 -103.0005 182° South  Level Estimated
01:48PM 46.0254 -103.0331 180° South  Level Estimated
01:49PM 45.9274 -102.9533 150° Southeast  Level FlightAware Approximate
01:50PM 45.8174 -102.9878 184° South  Level Estimated
01:51PM 45.7137 -102.9251 157° South  Level FlightAware Approximate
01:52PM 45.6039 -102.9612 184° South  Level Estimated
01:53PM 45.4942 -102.9971 180° South  Level Estimated
01:54PM 45.3844 -103.0330 185° South  Level Estimated
01:55PM 45.2774 -102.9833 162° South  Level FlightAware Approximate
01:56PM 45.1679 -103.0206 180° South  Level Estimated
01:57PM 45.0584 -103.0578 184° South  Level Estimated
01:58PM 44.9489 -103.0948 183° South  Level Estimated
01:59PM 44.8366 -103.0838 176° South  Level FlightAware Approximate
02:00PM 44.7242 -103.0729 176° South  Level FlightAware Approximate
02:01PM 44.6119 -103.0619 176° South  Level FlightAware Approximate
02:02PM 44.4996 -103.0511 176° South  Level FlightAware Approximate
02:03PM 44.3872 -103.0402 176° South  Level FlightAware Approximate
02:04PM 44.2749 -103.0294 176° South  Level FlightAware Approximate
02:05PM 44.1626 -103.0187 176° South  Level FlightAware Approximate
02:06PM 44.0502 -103.0079 176° South  Level FlightAware Approximate
02:07PM 43.9425 -103.0537 190° South  Level Estimated
02:08PM 43.8310 -103.0752 188° South  Level FlightAware Approximate
02:09PM 43.7195 -103.0966 188° South  Level FlightAware Approximate
02:10PM 43.6079 -103.1179 188° South  Level FlightAware Approximate
02:11PM 43.4964 -103.1391 188° South  Level FlightAware Approximate
02:12PM 43.3848 -103.1602 188° South  Level FlightAware Approximate
02:13PM 43.2733 -103.1813 188° South  Level FlightAware Approximate
02:14PM 43.1617 -103.2023 188° South  Level FlightAware Approximate
02:15PM 43.0502 -103.2232 188° South  Level FlightAware Approximate
02:16PM 42.9386 -103.2440 188° South  Level FlightAware Approximate
02:17PM 42.8326 -103.2957 189° South  Level Estimated
02:18PM 42.7210 -103.3161 188° South  Level FlightAware Approximate
02:19PM 42.6093 -103.3364 188° South  Level FlightAware Approximate
02:19PM 46.6794 -102.7311 171° South 221 254 8,800  Level Minneapolis Center
02:20PM 42.4977 -103.3566 188° South  Level FlightAware Approximate
02:20PM 46.6047 -102.7403 185° South 238 274 11,000  Level Minneapolis Center
02:21PM 42.3861 -103.3768 188° South  Level FlightAware Approximate
02:21PM 46.5117 -102.7567 187° South 288 331 12,500  Level Minneapolis Center
02:22PM 42.2745 -103.3968 188° South  Level FlightAware Approximate
02:22PM 46.4067 -102.7775 188° South 355 409 14,100  Level Minneapolis Center
02:23PM 42.1629 -103.4168 188° South  Level FlightAware Approximate
02:23PM 46.2983 -102.7919 185° South 381 438 15,800  Level Minneapolis Center
02:24PM 46.1631 -102.8125 186° South 401 461 18,000 1,920 Climbing Minneapolis Center
02:25PM 46.0489 -102.8286 186° South 408 470 19,800 1,740 Climbing Minneapolis Center
02:26PM 45.9353 -102.8461 186° South 411 473 21,700 1,800 Climbing Minneapolis Center
02:27PM 45.8208 -102.8636 186° South 413 475 23,600 1,860 Climbing Minneapolis Center
02:28PM 45.7094 -102.8728 183° South 407 468 25,600 1,560 Climbing Minneapolis Center
02:30PM 45.5967 -102.8908 186° South 406 467 26,900 1,260 Climbing Minneapolis Center
02:31PM 45.4675 -102.9344 193° South 417 480 28,300 1,500 Climbing Minneapolis Center
02:32PM 45.3492 -102.9578 188° South 425 489 30,000 1,260 Climbing Minneapolis Center
02:33PM 45.2308 -102.9750 186° South 427 491 31,000 480 Climbing Minneapolis Center
02:34PM 45.0783 -102.9994 186° South 452 520 31,000  Level Minneapolis Center
02:35PM 44.9417 -103.0222 187° South 482 555 31,000  Level Minneapolis Center
02:36PM 44.8078 -103.0444 187° South 491 565 31,000  Level Denver Center
02:37PM 44.6736 -103.0642 186° South 488 562 31,000  Level Denver Center
02:38PM 44.5389 -103.0850 186° South 488 562 31,000  Level Denver Center
02:39PM 44.4042 -103.1058 186° South 487 560 31,000  Level Denver Center
02:40PM 44.2697 -103.1281 187° South 488 562 31,000  Level Denver Center
02:41PM 44.1178 -103.1503 186° South 488 562 31,000  Level Denver Center
02:42PM 43.9686 -103.1764 187° South 485 558 31,000  Level Denver Center
02:43PM 43.8378 -103.1936 185° South 490 564 31,000  Level Denver Center
02:44PM 43.6858 -103.2158 186° South 490 564 31,000  Level Denver Center
02:45PM 43.5561 -103.2358 186° South 490 564 31,000  Level Denver Center
02:46PM 43.4261 -103.2544 186° South 490 564 31,000  Level Denver Center
02:47PM 43.2753 -103.2781 187° South 489 563 31,000  Level Denver Center
02:48PM 43.1439 -103.2972 186° South 493 567 31,000  Level Denver Center
02:49PM 42.9900 -103.3208 186° South 495 570 31,000  Level Denver Center
02:50PM 42.8586 -103.3403 186° South 495 570 31,000  Level Denver Center
02:51PM 42.7042 -103.3636 186° South 497 572 31,000  Level Denver Center
02:52PM 42.5708 -103.3819 186° South 501 577 31,000  Level Denver Center
02:53PM 42.4158 -103.4047 186° South 500 575 31,000  Level Denver Center
02:54PM 42.2847 -103.4239 186° South 495 570 31,000  Level Denver Center
02:55PM 42.1514 -103.4447 187° South 500 575 31,000  Level Denver Center
02:56PM 41.9947 -103.4678 186° South 504 580 31,000  Level Denver Center
02:57PM 41.8611 -103.4822 185° South 502 578 31,000  Level Denver Center
02:58PM 41.7025 -103.4875 181° South 509 586 31,000  Level Denver Center
02:59PM 41.5664 -103.4900 181° South 508 585 31,000  Level Denver Center
03:00PM 41.4069 -103.4950 181° South 510 587 31,000  Level Denver Center
03:02PM 41.2711 -103.4994 181° South 510 587 31,000  Level Denver Center
03:03PM 41.1133 -103.5019 181° South 507 583 31,000  Level Denver Center
03:04PM 40.9778 -103.5061 181° South 507 583 31,000 -300 Level Denver Center
03:05PM 40.8492 -103.5442 193° South 483 556 30,400 -1,200 Descending Denver Center
03:06PM 40.7264 -103.6064 201° Southwest 473 544 28,600 -2,160 Descending Denver Center
03:07PM 40.5900 -103.6903 205° Southwest 452 520 26,000 -2,640 Descending Denver Center
03:08PM 40.5094 -103.7942 224° Southwest 409 471 23,200 -2,700 Descending Denver Center
03:09PM 40.4297 -103.9033 226° Southwest 417 480 20,500 -1,560 Descending Denver Center
03:10PM 40.3569 -104.0053 227° Southwest 355 409 20,000 -840 Descending Denver Center
03:11PM 40.2831 -104.0839 219° Southwest 344 396 18,800 -1,500 Descending Denver Center
03:12PM 40.2053 -104.1700 220° Southwest 343 395 17,000 -1,740 Descending Denver Center
03:13PM 40.1344 -104.2453 219° Southwest 332 382 15,300 -1,560 Descending Denver Center
03:14PM 40.0639 -104.3225 220° Southwest 334 384 13,800 -1,140 Descending Denver Center
03:15PM 39.9931 -104.3992 220° Southwest 311 358 13,000 -600 Descending Denver Center
03:16PM 39.9278 -104.4697 220° Southwest 304 350 12,600 -900 Descending Denver Center
03:17PM 39.8464 -104.4994 196° South 286 329 11,200 -840 Descending Denver Center
03:18PM 39.7744 -104.5014 181° South 254 292 10,900 -900 Descending Denver Center
03:19PM 39.7047 -104.5033 181° South 249 287 9,400 -1,380 Descending Denver Center
03:20PM 39.6594 -104.5503 219° Southwest 226 260 8,100 -960 Descending Denver Center
03:21PM 39.6858 -104.6183 297° West 224 258 7,500 -540 Descending Denver Center
03:22PM 39.7458 -104.6419 343° North 211 243 7,000 -720 Descending Denver Center
03:23PM 39.7939 -104.6425 359° North 172 198 6,100 -780 Descending Denver Center
03:24PM 39.8403 -104.6417 North 152 175 5,400 -720 Descending Denver Center
03:26PM 39.8500 -104.6667 North  Level FlightAware Approximate
03:33PM 39.8617 -104.6732 North  Level Estimated
03:34PM 39.8617 -104.6732 North  Level Estimated
03:35PM 39.8617 -104.6732 North  Level Estimated